Terminal Aerodrome Forecast
Issued by NWS Wilmington, OH

Current Version | Previous Version | Text Only | Print | Product List | Glossary Off
Versions: 1 2 3 4 5 6 7 8 9 10 11 12 13 14 15 16 17 18 19 20 21

000
FTUS41 KILN 230547
TAFILN
TAF
KILN 230547Z 2306/2406 22008KT P6SM -SHRA VCTS BKN035CB OVC070
      TEMPO 2306/2308 5SM -TSRA BKN025CB
     FM230900 25004KT 5SM BR SCT025
     FM231300 25008KT P6SM BKN025
     FM231700 25008KT P6SM VCSH BKN035
     FM232000 25009KT P6SM -SHRA VCTS BKN035CB
      TEMPO 2322/2324 5SM -TSRA BKN025CB
     FM240100 30005KT P6SM VCSH BKN035=

USA.gov is the U.S. government's official web portal to all federal, state and local government web resources and services.